sensor_id;sensor_type;location;lat;lon;timestamp;pressure;altitude;pressure_sealevel;temperature;humidity
27429;BME280;14881;48.092;11.574;2022-12-18T00:00:04;96470.78;;;-4.50;100.00
27429;BME280;14881;48.092;11.574;2022-12-18T00:02:32;96470.22;;;-4.46;100.00
27429;BME280;14881;48.092;11.574;2022-12-18T00:05:00;96462.44;;;-4.39;100.00
27429;BME280;14881;48.092;11.574;2022-12-18T00:07:28;96469.22;;;-4.37;100.00
27429;BME280;14881;48.092;11.574;2022-12-18T00:09:56;96465.03;;;-4.31;100.00
27429;BME280;14881;48.092;11.574;2022-12-18T00:12:25;96453.13;;;-4.35;100.00
27429;BME280;14881;48.092;11.574;2022-12-18T00:14:55;96453.00;;;-4.42;100.00
27429;BME280;14881;48.092;11.574;2022-12-18T00:17:23;96455.91;;;-4.29;100.00
27429;BME280;14881;48.092;11.574;2022-12-18T00:19:50;96455.13;;;-4.37;100.00
27429;BME280;14881;48.092;11.574;2022-12-18T00:22:18;96462.09;;;-4.36;100.00
27429;BME280;14881;48.092;11.574;2022-12-18T00:24:46;96464.41;;;-4.33;100.00
27429;BME280;14881;48.092;11.574;2022-12-18T00:27:14;96457.13;;;-4.39;100.00
27429;BME280;14881;48.092;11.574;2022-12-18T00:29:45;96455.16;;;-4.45;100.00
27429;BME280;14881;48.092;11.574;2022-12-18T00:32:13;96465.94;;;-4.47;100.00
27429;BME280;14881;48.092;11.574;2022-12-18T00:34:40;96470.41;;;-4.47;100.00
27429;BME280;14881;48.092;11.574;2022-12-18T00:37:08;96475.03;;;-4.49;100.00
27429;BME280;14881;48.092;11.574;2022-12-18T00:39:42;96484.38;;;-4.53;100.00
27429;BME280;14881;48.092;11.574;2022-12-18T00:42:10;96495.44;;;-4.50;100.00
27429;BME280;14881;48.092;11.574;2022-12-18T00:44:59;96493.50;;;-4.64;100.00
27429;BME280;14881;48.092;11.574;2022-12-18T00:47:26;96494.31;;;-4.64;100.00
27429;BME280;14881;48.092;11.574;2022-12-18T00:49:54;96485.88;;;-4.67;100.00
27429;BME280;14881;48.092;11.574;2022-12-18T00:52:24;96491.53;;;-4.70;100.00
27429;BME280;14881;48.092;11.574;2022-12-18T00:54:52;96491.38;;;-4.69;100.00
27429;BME280;14881;48.092;11.574;2022-12-18T00:57:20;96490.19;;;-4.66;100.00
27429;BME280;14881;48.092;11.574;2022-12-18T00:59:47;96495.81;;;-4.61;100.00
27429;BME280;14881;48.092;11.574;2022-12-18T01:02:16;96492.66;;;-4.65;100.00
27429;BME280;14881;48.092;11.574;2022-12-18T01:04:44;96500.78;;;-4.66;100.00
27429;BME280;14881;48.092;11.574;2022-12-18T01:07:12;96501.78;;;-4.67;100.00
27429;BME280;14881;48.092;11.574;2022-12-18T01:09:40;96510.75;;;-4.68;100.00
27429;BME280;14881;48.092;11.574;2022-12-18T01:12:07;96506.78;;;-4.72;100.00
27429;BME280;14881;48.092;11.574;2022-12-18T01:14:36;96514.88;;;-4.66;100.00
27429;BME280;14881;48.092;11.574;2022-12-18T01:17:04;96521.50;;;-4.62;100.00
27429;BME280;14881;48.092;11.574;2022-12-18T01:19:33;96519.16;;;-4.65;100.00
27429;BME280;14881;48.092;11.574;2022-12-18T01:22:01;96527.00;;;-4.71;100.00
27429;BME280;14881;48.092;11.574;2022-12-18T01:24:28;96531.63;;;-4.81;100.00
27429;BME280;14881;48.092;11.574;2022-12-18T01:26:56;96546.25;;;-4.85;100.00
27429;BME280;14881;48.092;11.574;2022-12-18T01:29:24;96547.41;;;-4.88;100.00
27429;BME280;14881;48.092;11.574;2022-12-18T01:31:55;96544.75;;;-4.96;100.00
27429;BME280;14881;48.092;11.574;2022-12-18T01:34:23;96550.22;;;-4.89;100.00
27429;BME280;14881;48.092;11.574;2022-12-18T01:36:52;96548.72;;;-4.92;100.00
27429;BME280;14881;48.092;11.574;2022-12-18T01:39:19;96542.09;;;-4.96;100.00
27429;BME280;14881;48.092;11.574;2022-12-18T01:41:48;96554.34;;;-4.95;100.00
27429;BME280;14881;48.092;11.574;2022-12-18T01:44:54;96548.38;;;-4.89;100.00
27429;BME280;14881;48.092;11.574;2022-12-18T01:47:24;96563.94;;;-4.94;100.00
27429;BME280;14881;48.092;11.574;2022-12-18T01:49:54;96564.28;;;-4.89;100.00
27429;BME280;14881;48.092;11.574;2022-12-18T01:52:25;96562.13;;;-4.85;100.00
27429;BME280;14881;48.092;11.574;2022-12-18T01:54:54;96553.81;;;-4.82;100.00
27429;BME280;14881;48.092;11.574;2022-12-18T01:57:23;96563.78;;;-4.93;100.00
27429;BME280;14881;48.092;11.574;2022-12-18T01:59:54;96558.81;;;-4.87;100.00
27429;BME280;14881;48.092;11.574;2022-12-18T02:02:26;96558.97;;;-4.97;100.00
27429;BME280;14881;48.092;11.574;2022-12-18T02:04:55;96563.63;;;-4.99;100.00
27429;BME280;14881;48.092;11.574;2022-12-18T02:07:32;96554.69;;;-4.98;100.00
27429;BME280;14881;48.092;11.574;2022-12-18T02:10:07;96551.69;;;-4.87;100.00
27429;BME280;14881;48.092;11.574;2022-12-18T02:12:44;96544.41;;;-4.93;100.00
27429;BME280;14881;48.092;11.574;2022-12-18T02:15:17;96541.44;;;-4.98;100.00
27429;BME280;14881;48.092;11.574;2022-12-18T02:17:49;96536.63;;;-4.95;100.00
27429;BME280;14881;48.092;11.574;2022-12-18T02:20:23;96533.81;;;-4.93;100.00
27429;BME280;14881;48.092;11.574;2022-12-18T02:23:03;96538.63;;;-4.88;100.00
27429;BME280;14881;48.092;11.574;2022-12-18T02:25:51;96542.41;;;-4.83;100.00
27429;BME280;14881;48.092;11.574;2022-12-18T02:28:23;96544.91;;;-4.89;100.00
27429;BME280;14881;48.092;11.574;2022-12-18T02:30:56;96554.66;;;-4.82;100.00
27429;BME280;14881;48.092;11.574;2022-12-18T02:33:27;96551.69;;;-4.87;100.00
27429;BME280;14881;48.092;11.574;2022-12-18T02:35:57;96555.19;;;-4.86;100.00
27429;BME280;14881;48.092;11.574;2022-12-18T02:38:28;96549.22;;;-4.88;100.00
27429;BME280;14881;48.092;11.574;2022-12-18T02:40:59;96539.44;;;-4.88;100.00
27429;BME280;14881;48.092;11.574;2022-12-18T02:43:27;96535.16;;;-4.89;100.00
27429;BME280;14881;48.092;11.574;2022-12-18T02:45:58;96539.44;;;-4.88;100.00
27429;BME280;14881;48.092;11.574;2022-12-18T02:48:29;96533.31;;;-4.88;100.00
27429;BME280;14881;48.092;11.574;2022-12-18T02:51:02;96533.31;;;-4.88;100.00
27429;BME280;14881;48.092;11.574;2022-12-18T02:53:36;96541.09;;;-4.95;100.00
27429;BME280;14881;48.092;11.574;2022-12-18T02:56:13;96537.47;;;-4.94;100.00
27429;BME280;14881;48.092;11.574;2022-12-18T02:58:44;96536.63;;;-4.86;100.00
27429;BME280;14881;48.092;11.574;2022-12-18T03:01:18;96551.19;;;-4.91;100.00
27429;BME280;14881;48.092;11.574;2022-12-18T03:03:49;96550.50;;;-4.84;100.00
27429;BME280;14881;48.092;11.574;2022-12-18T03:06:23;96551.53;;;-4.85;100.00
27429;BME280;14881;48.092;11.574;2022-12-18T03:08:56;96545.75;;;-4.89;100.00
27429;BME280;14881;48.092;11.574;2022-12-18T03:11:28;96547.22;;;-4.95;100.00
27429;BME280;14881;48.092;11.574;2022-12-18T03:14:16;96529.00;;;-4.89;100.00
27429;BME280;14881;48.092;11.574;2022-12-18T03:16:47;96534.16;;;-4.88;100.00
27429;BME280;14881;48.092;11.574;2022-12-18T03:19:21;96535.16;;;-4.89;100.00
27429;BME280;14881;48.092;11.574;2022-12-18T03:21:54;96523.38;;;-4.95;100.00
27429;BME280;14881;48.092;11.574;2022-12-18T03:24:24;96519.91;;;-4.95;100.00
27429;BME280;14881;48.092;11.574;2022-12-18T03:26:57;96533.97;;;-4.86;100.00
27429;BME280;14881;48.092;11.574;2022-12-18T03:29:33;96532.28;;;-4.79;100.00
27429;BME280;14881;48.092;11.574;2022-12-18T03:32:04;96526.03;;;-4.86;100.00
27429;BME280;14881;48.092;11.574;2022-12-18T03:34:35;96537.09;;;-4.83;100.00
27429;BME280;14881;48.092;11.574;2022-12-18T03:37:05;96524.69;;;-4.82;100.00
27429;BME280;14881;48.092;11.574;2022-12-18T03:39:33;96534.28;;;-4.81;100.00
27429;BME280;14881;48.092;11.574;2022-12-18T03:42:06;96546.84;;;-4.67;100.00
27429;BME280;14881;48.092;11.574;2022-12-18T03:44:41;96538.59;;;-4.72;100.00
27429;BME280;14881;48.092;11.574;2022-12-18T03:47:15;96544.84;;;-4.65;100.00
27429;BME280;14881;48.092;11.574;2022-12-18T03:49:47;96544.38;;;-4.69;100.00
27429;BME280;14881;48.092;11.574;2022-12-18T03:52:21;96544.88;;;-4.73;100.00
27429;BME280;14881;48.092;11.574;2022-12-18T03:54:51;96541.56;;;-4.75;100.00
27429;BME280;14881;48.092;11.574;2022-12-18T03:57:26;96533.94;;;-4.70;100.00
27429;BME280;14881;48.092;11.574;2022-12-18T03:59:57;96532.63;;;-4.74;100.00
27429;BME280;14881;48.092;11.574;2022-12-18T04:02:29;96534.78;;;-4.78;100.00
27429;BME280;14881;48.092;11.574;2022-12-18T04:05:00;96545.03;;;-4.75;100.00
27429;BME280;14881;48.092;11.574;2022-12-18T04:07:30;96545.03;;;-4.75;100.00
27429;BME280;14881;48.092;11.574;2022-12-18T04:09:59;96537.44;;;-4.78;100.00
27429;BME280;14881;48.092;11.574;2022-12-18T04:12:30;96540.91;;;-4.77;100.00
27429;BME280;14881;48.092;11.574;2022-12-18T04:14:57;96540.91;;;-4.77;100.00
27429;BME280;14881;48.092;11.574;2022-12-18T04:17:25;96540.06;;;-4.78;100.00
27429;BME280;14881;48.092;11.574;2022-12-18T04:19:53;96539.75;;;-4.83;100.00
27429;BME280;14881;48.092;11.574;2022-12-18T04:22:20;96552.16;;;-4.75;100.00
27429;BME280;14881;48.092;11.574;2022-12-18T04:24:48;96554.78;;;-4.67;100.00
27429;BME280;14881;48.092;11.574;2022-12-18T04:27:16;96550.19;;;-4.73;100.00
27429;BME280;14881;48.092;11.574;2022-12-18T04:29:45;96550.69;;;-4.70;100.00
27429;BME280;14881;48.092;11.574;2022-12-18T04:32:12;96558.78;;;-4.71;100.00
27429;BME280;14881;48.092;11.574;2022-12-18T04:34:40;96548.50;;;-4.66;100.00
27429;BME280;14881;48.092;11.574;2022-12-18T04:37:08;96558.25;;;-4.67;100.00
27429;BME280;14881;48.092;11.574;2022-12-18T04:39:35;96567.91;;;-4.74;100.00
27429;BME280;14881;48.092;11.574;2022-12-18T04:42:03;96552.38;;;-4.85;100.00
27429;BME280;14881;48.092;11.574;2022-12-18T04:44:31;96553.34;;;-4.86;100.00
27429;BME280;14881;48.092;11.574;2022-12-18T04:47:00;96547.22;;;-4.86;100.00
27429;BME280;14881;48.092;11.574;2022-12-18T04:49:27;96555.81;;;-4.84;100.00
27429;BME280;14881;48.092;11.574;2022-12-18T04:51:55;96565.41;;;-4.83;100.00
27429;BME280;14881;48.092;11.574;2022-12-18T04:54:25;96570.72;;;-4.83;100.00
27429;BME280;14881;48.092;11.574;2022-12-18T04:56:52;96578.88;;;-4.85;100.00
27429;BME280;14881;48.092;11.574;2022-12-18T04:59:20;96579.53;;;-4.91;100.00
27429;BME280;14881;48.092;11.574;2022-12-18T05:01:49;96577.00;;;-4.84;100.00
27429;BME280;14881;48.092;11.574;2022-12-18T05:04:18;96583.00;;;-4.91;100.00
27429;BME280;14881;48.092;11.574;2022-12-18T05:06:46;96577.03;;;-4.93;100.00
27429;BME280;14881;48.092;11.574;2022-12-18T05:09:14;96578.53;;;-4.90;100.00
27429;BME280;14881;48.092;11.574;2022-12-18T05:11:42;96582.84;;;-4.89;100.00
27429;BME280;14881;48.092;11.574;2022-12-18T05:14:11;96577.69;;;-4.91;100.00
27429;BME280;14881;48.092;11.574;2022-12-18T05:16:39;96580.69;;;-4.85;100.00
27429;BME280;14881;48.092;11.574;2022-12-18T05:19:07;96595.09;;;-4.88;100.00
27429;BME280;14881;48.092;11.574;2022-12-18T05:21:36;96602.88;;;-4.86;100.00
27429;BME280;14881;48.092;11.574;2022-12-18T05:24:04;96594.91;;;-4.86;100.00
27429;BME280;14881;48.092;11.574;2022-12-18T05:26:32;96592.09;;;-4.85;100.00
27429;BME280;14881;48.092;11.574;2022-12-18T05:29:00;96593.41;;;-4.81;100.00
27429;BME280;14881;48.092;11.574;2022-12-18T05:31:27;96591.91;;;-4.83;100.00
27429;BME280;14881;48.092;11.574;2022-12-18T05:34:01;96589.47;;;-4.85;100.00
27429;BME280;14881;48.092;11.574;2022-12-18T05:36:29;96593.59;;;-4.91;100.00
27429;BME280;14881;48.092;11.574;2022-12-18T05:38:58;96583.00;;;-4.91;100.00
27429;BME280;14881;48.092;11.574;2022-12-18T05:41:26;96591.28;;;-4.94;100.00
27429;BME280;14881;48.092;11.574;2022-12-18T05:43:54;96610.97;;;-4.96;100.00
27429;BME280;14881;48.092;11.574;2022-12-18T05:46:21;96603.69;;;-4.94;100.00
27429;BME280;14881;48.092;11.574;2022-12-18T05:48:51;96610.97;;;-4.96;100.00
27429;BME280;14881;48.092;11.574;2022-12-18T05:51:20;96608.19;;;-5.03;100.00
27429;BME280;14881;48.092;11.574;2022-12-18T05:53:48;96617.59;;;-5.00;100.00
27429;BME280;14881;48.092;11.574;2022-12-18T05:56:19;96617.25;;;-4.97;100.00
27429;BME280;14881;48.092;11.574;2022-12-18T05:58:47;96611.31;;;-4.91;100.00
27429;BME280;14881;48.092;11.574;2022-12-18T06:01:16;96607.50;;;-4.97;100.00
27429;BME280;14881;48.092;11.574;2022-12-18T06:03:45;96615.59;;;-4.98;100.00
27429;BME280;14881;48.092;11.574;2022-12-18T06:06:14;96609.63;;;-5.00;100.00
27429;BME280;14881;48.092;11.574;2022-12-18T06:08:42;96611.81;;;-5.04;100.00
27429;BME280;14881;48.092;11.574;2022-12-18T06:11:12;96616.59;;;-4.99;100.00
27429;BME280;14881;48.092;11.574;2022-12-18T06:13:41;96615.28;;;-4.95;100.00
27429;BME280;14881;48.092;11.574;2022-12-18T06:16:09;96612.81;;;-4.88;100.00
27429;BME280;14881;48.092;11.574;2022-12-18T06:18:37;96623.53;;;-4.82;100.00
27429;BME280;14881;48.092;11.574;2022-12-18T06:21:05;96616.28;;;-4.88;100.00
27429;BME280;14881;48.092;11.574;2022-12-18T06:23:32;96612.31;;;-4.92;100.00
27429;BME280;14881;48.092;11.574;2022-12-18T06:26:03;96608.47;;;-4.98;100.00
27429;BME280;14881;48.092;11.574;2022-12-18T06:28:31;96614.13;;;-4.93;100.00
27429;BME280;14881;48.092;11.574;2022-12-18T06:31:02;96625.06;;;-4.87;100.00
27429;BME280;14881;48.092;11.574;2022-12-18T06:33:30;96624.72;;;-4.93;100.00
27429;BME280;14881;48.092;11.574;2022-12-18T06:36:00;96625.38;;;-4.91;100.00
27429;BME280;14881;48.092;11.574;2022-12-18T06:38:27;96630.19;;;-4.94;100.00
27429;BME280;14881;48.092;11.574;2022-12-18T06:40:55;96624.22;;;-4.96;100.00
27429;BME280;14881;48.092;11.574;2022-12-18T06:43:23;96639.28;;;-4.97;100.00
27429;BME280;14881;48.092;11.574;2022-12-18T06:45:51;96637.63;;;-5.06;100.00
27429;BME280;14881;48.092;11.574;2022-12-18T06:48:20;96645.25;;;-5.11;100.00
27429;BME280;14881;48.092;11.574;2022-12-18T06:50:48;96644.41;;;-5.11;100.00
27429;BME280;14881;48.092;11.574;2022-12-18T06:53:16;96645.25;;;-5.11;100.00
27429;BME280;14881;48.092;11.574;2022-12-18T06:55:44;96647.41;;;-5.06;100.00
27429;BME280;14881;48.092;11.574;2022-12-18T06:58:11;96646.88;;;-5.02;100.00
27429;BME280;14881;48.092;11.574;2022-12-18T07:00:39;96655.84;;;-5.03;100.00
27429;BME280;14881;48.092;11.574;2022-12-18T07:03:07;96660.81;;;-5.00;100.00
27429;BME280;14881;48.092;11.574;2022-12-18T07:05:40;96669.41;;;-5.14;100.00
27429;BME280;14881;48.092;11.574;2022-12-18T07:08:08;96662.78;;;-5.02;100.00
27429;BME280;14881;48.092;11.574;2022-12-18T07:10:41;96672.06;;;-5.06;100.00
27429;BME280;14881;48.092;11.574;2022-12-18T07:13:14;96664.13;;;-4.98;100.00
27429;BME280;14881;48.092;11.574;2022-12-18T07:15:42;96674.56;;;-4.96;100.00
27429;BME280;14881;48.092;11.574;2022-12-18T07:18:10;96679.38;;;-4.92;100.00
27429;BME280;14881;48.092;11.574;2022-12-18T07:20:40;96677.38;;;-4.81;100.00
27429;BME280;14881;48.092;11.574;2022-12-18T07:23:08;96678.19;;;-4.97;100.00
27429;BME280;14881;48.092;11.574;2022-12-18T07:25:36;96686.16;;;-5.05;100.00
27429;BME280;14881;48.092;11.574;2022-12-18T07:28:04;96688.75;;;-5.13;100.00
27429;BME280;14881;48.092;11.574;2022-12-18T07:30:32;96691.72;;;-5.16;100.00
27429;BME280;14881;48.092;11.574;2022-12-18T07:33:00;96690.59;;;-5.14;100.00
27429;BME280;14881;48.092;11.574;2022-12-18T07:35:27;96694.06;;;-5.21;100.00
27429;BME280;14881;48.092;11.574;2022-12-18T07:37:56;96694.56;;;-5.10;100.00
27429;BME280;14881;48.092;11.574;2022-12-18T07:40:24;96689.13;;;-5.08;100.00
27429;BME280;14881;48.092;11.574;2022-12-18T07:42:52;96677.03;;;-5.11;100.00
27429;BME280;14881;48.092;11.574;2022-12-18T07:45:19;96674.88;;;-4.99;100.00
27429;BME280;14881;48.092;11.574;2022-12-18T07:47:47;96675.03;;;-5.01;100.00
27429;BME280;14881;48.092;11.574;2022-12-18T07:50:15;96683.00;;;-5.09;100.00
27429;BME280;14881;48.092;11.574;2022-12-18T07:52:43;96677.69;;;-5.01;100.00
27429;BME280;14881;48.092;11.574;2022-12-18T07:55:12;96685.81;;;-5.02;100.00
27429;BME280;14881;48.092;11.574;2022-12-18T07:57:39;96680.69;;;-4.96;100.00
27429;BME280;14881;48.092;11.574;2022-12-18T08:00:17;96681.84;;;-5.06;100.00
27429;BME280;14881;48.092;11.574;2022-12-18T08:02:47;96684.78;;;-5.17;100.00
27429;BME280;14881;48.092;11.574;2022-12-18T08:05:14;96690.09;;;-5.09;100.00
27429;BME280;14881;48.092;11.574;2022-12-18T08:07:42;96690.94;;;-5.09;100.00
27429;BME280;14881;48.092;11.574;2022-12-18T08:10:11;96696.59;;;-4.87;100.00
27429;BME280;14881;48.092;11.574;2022-12-18T08:12:39;96696.44;;;-4.86;100.00
27429;BME280;14881;48.092;11.574;2022-12-18T08:15:08;96708.50;;;-4.67;100.00
27429;BME280;14881;48.092;11.574;2022-12-18T08:17:35;96706.19;;;-4.78;100.00
27429;BME280;14881;48.092;11.574;2022-12-18T08:20:03;96713.16;;;-4.85;100.00
27429;BME280;14881;48.092;11.574;2022-12-18T08:22:33;96706.03;;;-4.85;100.00
27429;BME280;14881;48.092;11.574;2022-12-18T08:25:01;96706.19;;;-4.78;100.00
27429;BME280;14881;48.092;11.574;2022-12-18T08:27:32;96708.84;;;-4.86;100.00
27429;BME280;14881;48.092;11.574;2022-12-18T08:29:59;96713.31;;;-4.79;100.00
27429;BME280;14881;48.092;11.574;2022-12-18T08:32:27;96717.78;;;-4.63;100.00
27429;BME280;14881;48.092;11.574;2022-12-18T08:34:55;96713.81;;;-4.67;100.00
27429;BME280;14881;48.092;11.574;2022-12-18T08:37:23;96713.31;;;-4.63;100.00
27429;BME280;14881;48.092;11.574;2022-12-18T08:39:50;96707.22;;;-4.71;100.00
27429;BME280;14881;48.092;11.574;2022-12-18T08:42:18;96708.72;;;-4.69;100.00
27429;BME280;14881;48.092;11.574;2022-12-18T08:45:06;96708.88;;;-4.54;100.00
27429;BME280;14881;48.092;11.574;2022-12-18T08:47:34;96714.16;;;-4.54;100.00
27429;BME280;14881;48.092;11.574;2022-12-18T08:50:01;96710.50;;;-4.45;100.00
27429;BME280;14881;48.092;11.574;2022-12-18T08:52:31;96713.84;;;-4.35;100.00
27429;BME280;14881;48.092;11.574;2022-12-18T08:54:59;96715.97;;;-4.30;100.00
27429;BME280;14881;48.092;11.574;2022-12-18T08:57:26;96716.97;;;-4.23;100.00
27429;BME280;14881;48.092;11.574;2022-12-18T08:59:54;96713.16;;;-4.29;100.00
27429;BME280;14881;48.092;11.574;2022-12-18T09:02:23;96710.50;;;-4.21;100.00
27429;BME280;14881;48.092;11.574;2022-12-18T09:04:51;96720.25;;;-4.05;100.00
27429;BME280;14881;48.092;11.574;2022-12-18T09:07:23;96723.75;;;-4.04;100.00
27429;BME280;14881;48.092;11.574;2022-12-18T09:09:50;96710.59;;;-3.98;100.00
27429;BME280;14881;48.092;11.574;2022-12-18T09:12:18;96718.56;;;-3.90;100.00
27429;BME280;14881;48.092;11.574;2022-12-18T09:14:46;96716.25;;;-3.93;100.00
27429;BME280;14881;48.092;11.574;2022-12-18T09:17:14;96718.91;;;-3.93;100.00
27429;BME280;14881;48.092;11.574;2022-12-18T09:19:43;96719.06;;;-3.94;100.00
27429;BME280;14881;48.092;11.574;2022-12-18T09:22:11;96715.78;;;-4.12;100.00
27429;BME280;14881;48.092;11.574;2022-12-18T09:24:39;96725.38;;;-3.95;100.00
27429;BME280;14881;48.092;11.574;2022-12-18T09:27:06;96718.72;;;-3.91;100.00
27429;BME280;14881;48.092;11.574;2022-12-18T09:29:34;96715.13;;;-4.23;100.00
27429;BME280;14881;48.092;11.574;2022-12-18T09:32:02;96714.66;;;-4.42;100.00
27429;BME280;14881;48.092;11.574;2022-12-18T09:34:30;96719.13;;;-4.35;100.00
27429;BME280;14881;48.092;11.574;2022-12-18T09:36:59;96721.44;;;-4.32;100.00
27429;BME280;14881;48.092;11.574;2022-12-18T09:39:26;96724.06;;;-3.99;100.00
27429;BME280;14881;48.092;11.574;2022-12-18T09:41:55;96721.06;;;-3.96;100.00
27429;BME280;14881;48.092;11.574;2022-12-18T09:44:26;96713.88;;;-3.79;100.00
27429;BME280;14881;48.092;11.574;2022-12-18T09:47:04;96713.38;;;-3.67;100.00
27429;BME280;14881;48.092;11.574;2022-12-18T09:49:38;96702.25;;;-3.78;100.00
27429;BME280;14881;48.092;11.574;2022-12-18T09:52:14;96709.09;;;-3.45;100.00
27429;BME280;14881;48.092;11.574;2022-12-18T09:54:46;96708.28;;;-3.45;100.00
27429;BME280;14881;48.092;11.574;2022-12-18T09:57:15;96696.72;;;-3.61;100.00
27429;BME280;14881;48.092;11.574;2022-12-18T09:59:48;96696.50;;;-3.90;100.00
27429;BME280;14881;48.092;11.574;2022-12-18T10:02:19;96706.78;;;-3.95;100.00
27429;BME280;14881;48.092;11.574;2022-12-18T10:04:57;96698.16;;;-3.81;100.00
27429;BME280;14881;48.092;11.574;2022-12-18T10:07:34;96700.75;;;-3.65;100.00
27429;BME280;14881;48.092;11.574;2022-12-18T10:10:12;96695.72;;;-3.52;100.00
27429;BME280;14881;48.092;11.574;2022-12-18T10:12:48;96692.84;;;-3.42;100.00
27429;BME280;14881;48.092;11.574;2022-12-18T10:15:24;96684.91;;;-3.50;100.00
27429;BME280;14881;48.092;11.574;2022-12-18T10:17:58;96673.59;;;-3.44;100.00
27429;BME280;14881;48.092;11.574;2022-12-18T10:20:34;96672.53;;;-3.66;100.00
27429;BME280;14881;48.092;11.574;2022-12-18T10:23:14;96675.84;;;-3.64;100.00
27429;BME280;14881;48.092;11.574;2022-12-18T10:25:50;96680.97;;;-3.62;100.00
27429;BME280;14881;48.092;11.574;2022-12-18T10:28:21;96671.91;;;-3.76;100.00
27429;BME280;14881;48.092;11.574;2022-12-18T10:30:50;96669.88;;;-3.66;100.00
27429;BME280;14881;48.092;11.574;2022-12-18T10:33:20;96665.75;;;-4.24;100.00
27429;BME280;14881;48.092;11.574;2022-12-18T10:35:52;96665.50;;;-3.98;100.00
27429;BME280;14881;48.092;11.574;2022-12-18T10:38:23;96660.72;;;-4.10;100.00
27429;BME280;14881;48.092;11.574;2022-12-18T10:40:54;96664.50;;;-3.97;100.00
27429;BME280;14881;48.092;11.574;2022-12-18T10:43:25;96655.88;;;-3.91;100.00
27429;BME280;14881;48.092;11.574;2022-12-18T10:46:12;96663.50;;;-3.88;100.00
27429;BME280;14881;48.092;11.574;2022-12-18T10:48:50;96662.84;;;-3.90;100.00
27429;BME280;14881;48.092;11.574;2022-12-18T10:51:21;96657.13;;;-3.78;100.00
27429;BME280;14881;48.092;11.574;2022-12-18T10:53:56;96663.44;;;-3.71;100.00
27429;BME280;14881;48.092;11.574;2022-12-18T10:56:26;96659.03;;;-3.95;100.00
27429;BME280;14881;48.092;11.574;2022-12-18T10:58:57;96667.03;;;-4.03;100.00
27429;BME280;14881;48.092;11.574;2022-12-18T11:01:25;96664.94;;;-3.77;100.00
27429;BME280;14881;48.092;11.574;2022-12-18T11:04:02;96667.00;;;-3.56;100.00
27429;BME280;14881;48.092;11.574;2022-12-18T11:06:52;96666.09;;;-3.40;100.00
27429;BME280;14881;48.092;11.574;2022-12-18T11:09:23;96675.06;;;-3.41;100.00
27429;BME280;14881;48.092;11.574;2022-12-18T11:11:52;96674.03;;;-3.32;100.00
27429;BME280;14881;48.092;11.574;2022-12-18T11:14:22;96679.06;;;-3.45;100.00
27429;BME280;14881;48.092;11.574;2022-12-18T11:16:52;96681.78;;;-3.54;100.00
27429;BME280;14881;48.092;11.574;2022-12-18T11:19:41;96689.75;;;-3.54;100.00
27429;BME280;14881;48.092;11.574;2022-12-18T11:22:19;96684.88;;;-3.42;100.00
27429;BME280;14881;48.092;11.574;2022-12-18T11:24:55;96676.91;;;-3.42;100.00
27429;BME280;14881;48.092;11.574;2022-12-18T11:27:48;96676.53;;;-3.31;100.00
27429;BME280;14881;48.092;11.574;2022-12-18T11:30:22;96676.16;;;-3.28;100.00
27429;BME280;14881;48.092;11.574;2022-12-18T11:32:54;96675.56;;;-3.38;100.00
27429;BME280;14881;48.092;11.574;2022-12-18T11:35:38;96658.94;;;-3.32;100.00
27429;BME280;14881;48.092;11.574;2022-12-18T11:38:19;96667.94;;;-3.41;100.00
27429;BME280;14881;48.092;11.574;2022-12-18T11:40:56;96659.94;;;-3.10;100.00
27429;BME280;14881;48.092;11.574;2022-12-18T11:43:28;96653.78;;;-2.79;100.00
27429;BME280;14881;48.092;11.574;2022-12-18T11:46:01;96648.97;;;-2.84;100.00
27429;BME280;14881;48.092;11.574;2022-12-18T11:48:34;96644.16;;;-2.81;100.00
27429;BME280;14881;48.092;11.574;2022-12-18T11:51:09;96647.91;;;-2.75;100.00
27429;BME280;14881;48.092;11.574;2022-12-18T11:53:39;96641.19;;;-2.86;100.00
27429;BME280;14881;48.092;11.574;2022-12-18T11:56:26;96637.22;;;-2.90;100.00
27429;BME280;14881;48.092;11.574;2022-12-18T11:59:00;96640.72;;;-2.89;100.00
27429;BME280;14881;48.092;11.574;2022-12-18T12:01:43;96633.69;;;-3.05;100.00
27429;BME280;14881;48.092;11.574;2022-12-18T12:04:45;96645.59;;;-3.24;100.00
27429;BME280;14881;48.092;11.574;2022-12-18T12:07:22;96649.25;;;-3.25;100.00
27429;BME280;14881;48.092;11.574;2022-12-18T12:10:04;96646.50;;;-3.39;100.00
27429;BME280;14881;48.092;11.574;2022-12-18T12:12:50;96639.69;;;-3.11;100.00
27429;BME280;14881;48.092;11.574;2022-12-18T12:15:31;96644.75;;;-3.24;100.00
27429;BME280;14881;48.092;11.574;2022-12-18T12:18:08;96650.59;;;-3.29;100.00
27429;BME280;14881;48.092;11.574;2022-12-18T12:20:48;96640.69;;;-3.35;100.00
27429;BME280;14881;48.092;11.574;2022-12-18T12:23:25;96647.34;;;-3.39;100.00
27429;BME280;14881;48.092;11.574;2022-12-18T12:25:59;96633.91;;;-3.45;100.00
27429;BME280;14881;48.092;11.574;2022-12-18T12:28:50;96621.22;;;-3.58;100.00
27429;BME280;14881;48.092;11.574;2022-12-18T12:31:32;96625.09;;;-3.38;100.00
27429;BME280;14881;48.092;11.574;2022-12-18T12:34:09;96624.09;;;-3.37;100.00
27429;BME280;14881;48.092;11.574;2022-12-18T12:36:50;96616.66;;;-3.19;100.00
27429;BME280;14881;48.092;11.574;2022-12-18T12:39:23;96621.22;;;-3.04;100.00
27429;BME280;14881;48.092;11.574;2022-12-18T12:41:52;96619.63;;;-3.13;100.00
27429;BME280;14881;48.092;11.574;2022-12-18T12:44:42;96615.31;;;-3.14;100.00
27429;BME280;14881;48.092;11.574;2022-12-18T12:47:16;96619.34;;;-3.19;100.00
27429;BME280;14881;48.092;11.574;2022-12-18T12:49:47;96618.78;;;-3.37;100.00
27429;BME280;14881;48.092;11.574;2022-12-18T12:52:23;96619.69;;;-3.22;100.00
27429;BME280;14881;48.092;11.574;2022-12-18T12:54:55;96617.53;;;-3.26;100.00
27429;BME280;14881;48.092;11.574;2022-12-18T12:57:29;96620.47;;;-3.13;100.00
27429;BME280;14881;48.092;11.574;2022-12-18T13:00:03;96620.50;;;-3.21;100.00